Jeppesen Maersk — OWTW2 — position and weather

sailwx.info

Track history (hours):
 
Tides and Currents Weather Stations Pressure Air Temp Water Temp Dewpoint Dewpoint Depression Visibility Wind Speed Wind Dir Waves Ship Positions

Jeppesen Maersk

Last reported at 2014-Dec-17 11:14 UTC. Time now 2014-Dec-18 02:31 UTC.
Position N 01°56' E 102°19'.

Type: Ship (hazmat cat A). MMSI: 219953000.

Date/timePositionNaut miles runAvg speedWind from/ knotsBaromVisibWave heightAir tempDewpointWater temp
2014-Dec-17 11:14N 01°56' E 102°19'1421.2
2014-Dec-17 10:34N 01°50' E 102°32'8018.7
2014-Dec-17 06:18N 01°15' E 103°43'2 2.8
2014-Dec-17 05:24N 01°17' E 103°45'0 0.0
2014-Dec-17 04:30N 01°17' E 103°45'0 0.0
2014-Dec-17 03:33N 01°17' E 103°45'0 0.1
2014-Dec-17 02:33N 01°17' E 103°45'0 0.1
2014-Dec-17 01:27N 01°17' E 103°45'0 0.0
2014-Dec-17 00:27N 01°17' E 103°45'0 0.1
2014-Dec-16 23:33N 01°17' E 103°45'0 0.1
2014-Dec-16 22:33N 01°17' E 103°45'0 0.0
2014-Dec-16 21:33N 01°17' E 103°45'0 0.0
2014-Dec-16 20:21N 01°17' E 103°45'0 0.1
2014-Dec-16 19:24N 01°17' E 103°45'1 0.7
2014-Dec-16 18:33N 01°16' E 103°45'8 8.3
2014-Dec-16 17:33N 01°12' E 103°38'7 1.2
2014-Dec-16 11:26N 01°15' E 103°31'0 0.0
2014-Dec-16 09:14N 01°15' E 103°32'0 0.0
2014-Dec-16 08:29N 01°15' E 103°32'0 0.0
2014-Dec-16 05:32N 01°15' E 103°32'1 0.0
2014-Dec-15 04:32N 01°15' E 103°31'46 7.2
2014-Dec-14 22:05N 01°36' E 102°50'815.9
2014-Dec-14 21:33N 01°39' E 102°43'1616.1
2014-Dec-14 20:33N 01°46' E 102°28'1815.9
2014-Dec-14 19:26N 01°55' E 102°12'  
2014-Dec-11 10:14N 01°58' E 102°15'1115.1
2014-Dec-11 09:30N 01°53' E 102°25'1515.4
2014-Dec-11 08:33N 01°47' E 102°38'7412.3
2014-Dec-11 02:33N 01°17' E 103°45'1 0.7
2014-Dec-11 01:26N 01°17' E 103°46'0 0.0
2014-Dec-11 00:32N 01°17' E 103°46'0 0.0
2014-Dec-10 23:23N 01°17' E 103°46'0 0.0
2014-Dec-10 22:14N 01°17' E 103°46'0 0.0
2014-Dec-10 21:29N 01°17' E 103°46'0 0.0
2014-Dec-10 20:29N 01°17' E 103°46'0 0.0
2014-Dec-10 19:29N 01°17' E 103°46'0 0.0
2014-Dec-10 18:29N 01°17' E 103°46'0 0.0
2014-Dec-10 17:23N 01°17' E 103°46'0 0.0
2014-Dec-10 16:29N 01°17' E 103°46'1 1.5
2014-Dec-10 15:33N 01°17' E 103°44'3 2.5
2014-Dec-10 14:33N 01°15' E 103°44'  
Track history (hours):
 
Tides and Currents Weather Stations Pressure Air Temp Water Temp Dewpoint Dewpoint Depression Visibility Wind Speed Wind Dir Waves Ship Positions

Jeppesen Maersk

Last reported at 2014-Dec-17 11:14 UTC. Time now 2014-Dec-18 02:31 UTC.
Position N 01°56' E 102°19'.

Type: Ship (hazmat cat A). MMSI: 219953000.

Date/timePositionNaut miles runAvg speedWind from/ knotsBaromVisibWave heightAir tempDewpointWater temp
2014-Dec-17 11:14N 01°56' E 102°19'1421.2
2014-Dec-17 10:34N 01°50' E 102°32'8018.7
2014-Dec-17 06:18N 01°15' E 103°43'2 2.8
2014-Dec-17 05:24N 01°17' E 103°45'0 0.0
2014-Dec-17 04:30N 01°17' E 103°45'0 0.0
2014-Dec-17 03:33N 01°17' E 103°45'0 0.1
2014-Dec-17 02:33N 01°17' E 103°45'0 0.1
2014-Dec-17 01:27N 01°17' E 103°45'0 0.0
2014-Dec-17 00:27N 01°17' E 103°45'0 0.1
2014-Dec-16 23:33N 01°17' E 103°45'0 0.1
2014-Dec-16 22:33N 01°17' E 103°45'0 0.0
2014-Dec-16 21:33N 01°17' E 103°45'0 0.0
2014-Dec-16 20:21N 01°17' E 103°45'0 0.1
2014-Dec-16 19:24N 01°17' E 103°45'1 0.7
2014-Dec-16 18:33N 01°16' E 103°45'8 8.3
2014-Dec-16 17:33N 01°12' E 103°38'7 1.2
2014-Dec-16 11:26N 01°15' E 103°31'0 0.0
2014-Dec-16 09:14N 01°15' E 103°32'0 0.0
2014-Dec-16 08:29N 01°15' E 103°32'0 0.0
2014-Dec-16 05:32N 01°15' E 103°32'1 0.0
2014-Dec-15 04:32N 01°15' E 103°31'46 7.2
2014-Dec-14 22:05N 01°36' E 102°50'815.9
2014-Dec-14 21:33N 01°39' E 102°43'1616.1
2014-Dec-14 20:33N 01°46' E 102°28'1815.9
2014-Dec-14 19:26N 01°55' E 102°12'  
2014-Dec-11 10:14N 01°58' E 102°15'1115.1
2014-Dec-11 09:30N 01°53' E 102°25'1515.4
2014-Dec-11 08:33N 01°47' E 102°38'7412.3
2014-Dec-11 02:33N 01°17' E 103°45'1 0.7
2014-Dec-11 01:26N 01°17' E 103°46'0 0.0
2014-Dec-11 00:32N 01°17' E 103°46'0 0.0
2014-Dec-10 23:23N 01°17' E 103°46'0 0.0
2014-Dec-10 22:14N 01°17' E 103°46'0 0.0
2014-Dec-10 21:29N 01°17' E 103°46'0 0.0
2014-Dec-10 20:29N 01°17' E 103°46'0 0.0
2014-Dec-10 19:29N 01°17' E 103°46'0 0.0
2014-Dec-10 18:29N 01°17' E 103°46'0 0.0
2014-Dec-10 17:23N 01°17' E 103°46'0 0.0
2014-Dec-10 16:29N 01°17' E 103°46'1 1.5
2014-Dec-10 15:33N 01°17' E 103°44'3 2.5
2014-Dec-10 14:33N 01°15' E 103°44'  

Dump ship's entire track history